createdAt,value
2019-04-22T00:00:04.756Z,0.00
2019-04-22T00:01:05.788Z,0.00
2019-04-22T00:02:10.859Z,0.00
2019-04-22T00:03:10.285Z,0.00
2019-04-22T00:04:42.150Z,0.00
2019-04-22T00:06:14.588Z,0.00
2019-04-22T00:07:42.033Z,0.00
2019-04-22T00:09:11.054Z,0.00
2019-04-22T00:10:43.596Z,0.00
2019-04-22T00:11:35.447Z,0.00
2019-04-22T00:12:34.559Z,0.00
2019-04-22T00:13:56.725Z,0.00
2019-04-22T00:15:19.949Z,0.00
2019-04-22T00:17:10.010Z,0.00
2019-04-22T00:17:55.306Z,0.00
2019-04-22T00:19:26.944Z,0.00
2019-04-22T00:20:14.320Z,0.00
2019-04-22T00:21:19.720Z,0.00
2019-04-22T00:22:22.924Z,0.00
2019-04-22T00:23:14.044Z,0.00
2019-04-22T00:24:12.079Z,0.00
2019-04-22T00:25:20.149Z,0.00
2019-04-22T00:26:18.633Z,0.00
2019-04-22T00:27:26.125Z,0.00
2019-04-22T00:28:19.986Z,4.00
2019-04-22T00:29:39.247Z,4.00
2019-04-22T00:30:16.508Z,4.00
2019-04-22T00:31:40.395Z,4.00
2019-04-22T00:32:36.921Z,4.00
2019-04-22T00:33:57.789Z,4.00
2019-04-22T00:35:26.338Z,8.00
2019-04-22T00:36:48.298Z,8.00
2019-04-22T00:38:20.354Z,12.00
2019-04-22T00:39:44.113Z,16.00
2019-04-22T00:41:08.555Z,16.00
2019-04-22T00:42:36.096Z,20.00
2019-04-22T00:43:33.419Z,24.00
2019-04-22T00:45:03.263Z,28.00
2019-04-22T00:45:56.226Z,28.00
2019-04-22T00:47:01.133Z,32.00
2019-04-22T00:48:27.528Z,32.00
2019-04-22T00:50:06.617Z,32.00
2019-04-22T00:50:25.557Z,36.00
2019-04-22T00:51:33.655Z,40.00
2019-04-22T00:52:21.827Z,40.00
2019-04-22T00:53:48.080Z,44.00
2019-04-22T00:54:55.775Z,48.00
2019-04-22T00:56:11.358Z,48.00
2019-04-22T00:57:10.449Z,52.00
2019-04-22T00:58:37.858Z,52.00
2019-04-22T00:59:40.443Z,60.00
2019-04-22T01:00:37.864Z,68.00
2019-04-22T01:01:37.269Z,80.00
2019-04-22T01:02:44.533Z,88.00
2019-04-22T01:03:44.211Z,92.00
2019-04-22T01:05:00.912Z,96.00
2019-04-22T01:07:50.026Z,108.00
2019-04-22T01:09:34.697Z,116.00
2019-04-22T01:10:20.297Z,124.00
2019-04-22T01:11:17.126Z,132.00
2019-04-22T01:12:40.084Z,144.00
2019-04-22T01:13:38.288Z,152.00
2019-04-22T01:15:10.919Z,160.00
2019-04-22T01:16:04.286Z,168.00
2019-04-22T01:17:09.598Z,176.00
2019-04-22T01:18:08.276Z,184.00
2019-04-22T01:18:59.204Z,188.00
2019-04-22T01:20:57.172Z,196.00
2019-04-22T01:21:36.997Z,200.00
2019-04-22T01:22:26.742Z,208.00
2019-04-22T01:23:32.581Z,216.00
2019-04-22T01:24:28.058Z,224.00
2019-04-22T01:25:46.430Z,244.00
2019-04-22T01:27:10.525Z,260.00
2019-04-22T01:28:36.246Z,276.00
2019-04-22T01:29:59.989Z,292.00
2019-04-22T01:31:15.344Z,324.00
2019-04-22T01:32:38.473Z,360.00
2019-04-22T01:34:11.431Z,384.00
2019-04-22T01:35:16.599Z,400.00
2019-04-22T01:36:45.598Z,408.00
2019-04-22T01:38:04.295Z,416.00
2019-04-22T01:39:09.391Z,424.00
2019-04-22T01:40:40.532Z,436.00
2019-04-22T01:41:35.919Z,452.00
2019-04-22T01:42:43.211Z,456.00
2019-04-22T01:44:24.202Z,448.00
2019-04-22T01:45:10.673Z,436.00
2019-04-22T01:46:10.559Z,416.00
2019-04-22T01:47:08.120Z,404.00
2019-04-22T01:48:27.026Z,396.00
2019-04-22T01:49:57.864Z,404.00
2019-04-22T01:50:49.989Z,412.00
2019-04-22T01:52:15.705Z,440.00
2019-04-22T01:53:24.602Z,468.00
2019-04-22T01:54:47.703Z,516.00
2019-04-22T01:55:45.498Z,560.00
2019-04-22T01:56:46.702Z,604.00
2019-04-22T01:57:45.629Z,636.00
2019-04-22T01:58:38.246Z,668.00
2019-04-22T01:59:37.053Z,704.00
2019-04-22T02:01:08.926Z,764.00
2019-04-22T02:02:43.975Z,836.00
2019-04-22T02:03:33.269Z,888.00
2019-04-22T02:04:59.628Z,928.00
2019-04-22T02:05:58.842Z,944.00
2019-04-22T02:06:57.252Z,964.00
2019-04-22T02:08:35.813Z,1016.00
2019-04-22T02:10:51.977Z,1152.00
2019-04-22T02:12:15.795Z,1236.00
2019-04-22T02:13:15.273Z,1308.00
2019-04-22T02:14:39.537Z,1396.00
2019-04-22T02:15:46.522Z,1476.00
2019-04-22T02:17:39.744Z,1768.00
2019-04-22T02:19:02.623Z,1980.00
2019-04-22T02:20:25.316Z,2032.00
2019-04-22T02:21:51.626Z,1992.00
2019-04-22T02:23:05.956Z,2044.00
2019-04-22T02:24:05.161Z,2176.00
2019-04-22T02:24:56.258Z,2228.00
2019-04-22T02:25:58.046Z,2188.00
2019-04-22T02:27:17.750Z,2084.00
2019-04-22T02:28:39.987Z,2012.00
2019-04-22T02:29:44.442Z,2040.00
2019-04-22T02:31:02.036Z,2088.00
2019-04-22T02:31:45.382Z,2060.00
2019-04-22T02:33:18.459Z,1980.00
2019-04-22T02:35:11.162Z,1772.00
2019-04-22T02:37:27.747Z,1612.00
2019-04-22T02:39:07.930Z,1744.00
2019-04-22T02:40:06.119Z,1840.00
2019-04-22T02:41:22.885Z,1916.00
2019-04-22T02:42:09.494Z,2028.00
2019-04-22T02:43:01.331Z,2152.00
2019-04-22T02:44:13.434Z,2200.00
2019-04-22T02:44:53.224Z,2228.00
2019-04-22T02:47:53.890Z,2552.00
2019-04-22T02:49:04.143Z,2792.00
2019-04-22T02:49:45.085Z,3056.00
2019-04-22T02:52:39.508Z,4228.00
2019-04-22T02:55:11.128Z,5464.00
2019-04-22T02:56:23.051Z,5896.00
2019-04-22T02:57:03.323Z,6624.00
2019-04-22T02:58:44.940Z,7516.00
2019-04-22T03:00:58.407Z,6864.00
2019-04-22T03:01:51.353Z,6536.00
2019-04-22T03:03:18.379Z,6420.00
2019-04-22T03:05:22.008Z,6516.00
2019-04-22T03:07:48.981Z,6316.00
2019-04-22T03:12:02.701Z,5576.00
2019-04-22T03:13:01.077Z,5332.00
2019-04-22T03:14:00.734Z,5124.00
2019-04-22T03:14:55.496Z,4904.00
2019-04-22T03:16:51.222Z,4536.00
2019-04-22T03:18:29.406Z,4328.00
2019-04-22T03:20:14.501Z,4264.00
2019-04-22T03:21:48.673Z,4368.00
2019-04-22T03:22:47.385Z,4420.00
2019-04-22T03:23:55.741Z,4340.00
2019-04-22T03:24:54.382Z,4220.00
2019-04-22T03:27:08.214Z,4024.00
2019-04-22T03:28:44.414Z,3832.00
2019-04-22T03:29:46.646Z,3664.00
2019-04-22T03:32:39.475Z,3632.00
2019-04-22T03:33:12.215Z,3784.00
2019-04-22T03:35:31.657Z,4184.00
2019-04-22T03:36:06.035Z,4552.00
2019-04-22T03:37:35.872Z,5560.00
2019-04-22T03:38:43.889Z,6628.00
2019-04-22T03:40:55.290Z,9848.00
2019-04-22T03:42:06.356Z,11488.00
2019-04-22T03:42:59.716Z,12328.00
2019-04-22T03:44:18.642Z,12888.00
2019-04-22T03:46:17.037Z,12152.00
2019-04-22T03:47:43.587Z,10748.00
2019-04-22T03:48:45.408Z,10176.00
2019-04-22T03:54:29.786Z,11428.00
2019-04-22T03:55:25.728Z,11060.00
2019-04-22T03:57:04.364Z,11040.00
2019-04-22T03:57:44.777Z,11464.00
2019-04-22T03:58:10.565Z,11336.00
2019-04-22T03:59:28.973Z,10924.00
2019-04-22T04:02:13.447Z,9532.00
2019-04-22T04:03:28.611Z,10024.00
2019-04-22T04:04:58.725Z,11344.00
2019-04-22T04:08:51.784Z,11252.00
2019-04-22T04:09:53.581Z,11444.00
2019-04-22T04:10:50.270Z,11708.00
2019-04-22T04:11:59.601Z,10912.00
2019-04-22T04:14:22.851Z,10132.00
2019-04-22T04:15:19.003Z,10396.00
2019-04-22T04:16:10.803Z,11156.00
2019-04-22T04:17:50.145Z,11788.00
2019-04-22T04:18:46.746Z,12424.00
2019-04-22T04:19:43.840Z,11976.00
2019-04-22T04:21:20.503Z,11244.00
2019-04-22T04:22:09.789Z,11388.00
2019-04-22T04:24:55.869Z,11100.00
2019-04-22T04:27:20.826Z,11264.00
2019-04-22T04:32:30.805Z,12588.00
2019-04-22T04:33:10.550Z,13148.00
2019-04-22T04:35:05.352Z,13576.00
2019-04-22T04:38:23.942Z,14040.00
2019-04-22T04:39:26.820Z,13592.00
2019-04-22T04:40:29.222Z,13888.00
2019-04-22T04:41:34.239Z,13484.00
2019-04-22T04:43:54.256Z,10876.00
2019-04-22T04:45:11.395Z,11352.00
2019-04-22T04:50:12.117Z,13004.00
2019-04-22T04:52:39.624Z,12572.00
2019-04-22T04:53:29.243Z,12944.00
2019-04-22T04:54:30.260Z,13108.00
2019-04-22T04:55:43.634Z,12628.00
2019-04-22T04:58:13.359Z,13052.00
2019-04-22T04:59:05.681Z,12736.00
2019-04-22T05:01:30.737Z,13892.00
2019-04-22T05:02:22.621Z,13720.00
2019-04-22T05:03:21.683Z,13480.00
2019-04-22T05:07:09.004Z,12072.00
2019-04-22T05:08:00.748Z,12260.00
2019-04-22T05:10:47.936Z,12208.00
2019-04-22T05:11:43.161Z,12584.00
2019-04-22T05:12:45.901Z,11924.00
2019-04-22T05:13:32.983Z,12388.00
2019-04-22T05:15:00.321Z,12592.00
2019-04-22T05:16:10.676Z,12792.00
2019-04-22T05:16:54.595Z,12792.00
2019-04-22T05:17:57.817Z,12768.00
2019-04-22T05:18:58.905Z,12852.00
2019-04-22T05:19:57.114Z,13404.00
2019-04-22T05:21:09.688Z,13448.00
2019-04-22T05:21:53.394Z,12908.00
2019-04-22T05:23:22.111Z,12624.00
2019-04-22T05:26:05.872Z,12444.00
2019-04-22T05:28:52.158Z,12632.00
2019-04-22T05:30:07.531Z,12260.00
2019-04-22T05:32:18.973Z,12760.00
2019-04-22T05:33:40.969Z,12660.00
2019-04-22T05:35:06.798Z,12276.00
2019-04-22T05:36:38.813Z,12224.00
2019-04-22T05:37:33.851Z,12076.00
2019-04-22T05:38:44.328Z,11848.00
2019-04-22T05:39:28.307Z,11652.00
2019-04-22T05:40:57.431Z,11668.00
2019-04-22T05:41:54.765Z,11416.00
2019-04-22T05:43:21.599Z,10852.00
2019-04-22T05:44:23.280Z,11156.00
2019-04-22T05:45:28.266Z,11328.00
2019-04-22T05:46:24.893Z,11596.00
2019-04-22T05:47:19.571Z,10644.00
2019-04-22T05:48:43.981Z,11676.00
2019-04-22T05:50:09.537Z,11500.00
2019-04-22T05:51:40.267Z,11440.00
2019-04-22T05:53:00.442Z,10540.00
2019-04-22T05:54:05.471Z,11252.00
2019-04-22T05:55:30.393Z,12184.00
2019-04-22T05:56:34.501Z,12120.00
2019-04-22T05:57:23.356Z,12100.00
2019-04-22T05:58:55.156Z,12304.00
2019-04-22T06:00:16.271Z,11996.00
2019-04-22T06:04:05.333Z,12036.00
2019-04-22T06:05:32.178Z,11012.00
2019-04-22T06:06:42.933Z,11428.00
2019-04-22T06:07:26.390Z,11464.00
2019-04-22T06:08:57.783Z,11400.00
2019-04-22T06:09:59.632Z,11268.00
2019-04-22T06:11:22.775Z,10532.00
2019-04-22T06:12:41.653Z,10176.00
2019-04-22T06:14:02.269Z,10600.00
2019-04-22T06:15:31.715Z,10896.00
2019-04-22T06:16:59.349Z,11064.00
2019-04-22T06:19:44.175Z,13468.00
2019-04-22T06:21:11.492Z,13336.00
2019-04-22T06:22:43.234Z,12828.00
2019-04-22T06:23:44.379Z,12536.00
2019-04-22T06:25:00.954Z,12384.00
2019-04-22T06:27:58.564Z,12032.00
2019-04-22T06:28:56.939Z,11956.00
2019-04-22T06:29:46.160Z,11860.00
2019-04-22T06:31:19.679Z,11348.00
2019-04-22T06:33:40.529Z,11376.00
2019-04-22T06:35:01.984Z,11632.00
2019-04-22T06:36:08.826Z,11836.00
2019-04-22T06:39:51.047Z,12256.00
2019-04-22T06:41:07.171Z,12308.00
2019-04-22T06:42:00.961Z,12240.00
2019-04-22T06:43:58.610Z,11904.00
2019-04-22T06:45:24.565Z,11100.00
2019-04-22T06:46:25.763Z,10432.00
2019-04-22T06:48:09.758Z,9780.00
2019-04-22T06:48:44.095Z,9516.00
2019-04-22T06:51:15.344Z,9220.00
2019-04-22T06:52:14.143Z,9120.00
2019-04-22T06:53:36.024Z,9120.00
2019-04-22T06:54:59.574Z,9364.00
2019-04-22T06:55:59.687Z,9576.00
2019-04-22T06:57:04.384Z,9776.00
2019-04-22T06:58:01.532Z,10016.00
2019-04-22T06:59:26.509Z,10388.00
2019-04-22T07:00:44.644Z,10812.00
2019-04-22T07:01:49.996Z,11072.00
2019-04-22T07:04:44.940Z,11604.00
2019-04-22T07:05:43.401Z,11608.00
2019-04-22T07:06:42.339Z,11536.00
2019-04-22T07:08:25.069Z,11820.00
2019-04-22T07:09:25.311Z,11904.00
2019-04-22T07:10:18.330Z,11840.00
2019-04-22T07:11:04.836Z,11612.00
2019-04-22T07:12:06.404Z,11316.00
2019-04-22T07:13:27.785Z,10988.00
2019-04-22T07:14:54.577Z,10796.00
2019-04-22T07:15:59.582Z,10584.00
2019-04-22T07:16:56.184Z,10028.00
2019-04-22T07:17:58.316Z,9996.00
2019-04-22T07:18:54.997Z,10064.00
2019-04-22T07:19:49.550Z,9956.00
2019-04-22T07:21:12.498Z,9756.00
2019-04-22T07:22:40.168Z,9496.00
2019-04-22T07:24:27.806Z,9220.00
2019-04-22T07:25:06.529Z,9228.00
2019-04-22T07:26:29.112Z,9284.00
2019-04-22T07:27:34.742Z,9488.00
2019-04-22T07:28:50.858Z,9500.00
2019-04-22T07:29:32.701Z,9528.00
2019-04-22T07:30:57.725Z,9576.00
2019-04-22T07:32:25.339Z,9312.00
2019-04-22T07:33:51.774Z,9276.00
2019-04-22T07:36:30.667Z,9316.00
2019-04-22T07:39:01.828Z,9576.00
2019-04-22T07:40:28.776Z,10380.00
2019-04-22T07:41:27.273Z,10732.00
2019-04-22T07:42:45.780Z,10740.00
2019-04-22T07:43:42.949Z,10236.00
2019-04-22T07:44:44.950Z,9588.00
2019-04-22T07:45:29.663Z,9252.00
2019-04-22T07:46:26.608Z,9116.00
2019-04-22T07:47:53.823Z,9176.00
2019-04-22T07:49:18.333Z,9184.00
2019-04-22T07:50:25.381Z,9176.00
2019-04-22T07:51:47.842Z,9200.00
2019-04-22T07:52:38.819Z,9240.00
2019-04-22T07:54:06.158Z,9224.00
2019-04-22T07:55:27.307Z,9268.00
2019-04-22T07:56:29.339Z,9452.00
2019-04-22T07:57:51.871Z,9792.00
2019-04-22T07:59:22.250Z,9960.00
2019-04-22T08:00:27.601Z,9952.00
2019-04-22T08:01:25.060Z,9900.00
2019-04-22T08:02:26.247Z,9876.00
2019-04-22T08:06:13.809Z,9752.00
2019-04-22T08:07:12.922Z,9564.00
2019-04-22T08:08:17.404Z,9324.00
2019-04-22T08:09:43.412Z,8952.00
2019-04-22T08:11:30.975Z,9240.00
2019-04-22T08:11:59.293Z,9476.00
2019-04-22T08:13:01.816Z,9560.00
2019-04-22T08:14:28.319Z,9588.00
2019-04-22T08:15:26.950Z,9336.00
2019-04-22T08:16:51.990Z,8672.00
2019-04-22T08:17:57.864Z,8064.00
2019-04-22T08:19:18.238Z,7728.00
2019-04-22T08:22:03.718Z,7136.00
2019-04-22T08:24:28.866Z,6472.00
2019-04-22T08:25:31.493Z,6284.00
2019-04-22T08:26:27.432Z,6108.00
2019-04-22T08:27:33.323Z,5948.00
2019-04-22T08:28:34.520Z,5824.00
2019-04-22T08:29:37.685Z,5736.00
2019-04-22T08:31:56.639Z,5416.00
2019-04-22T08:32:53.091Z,5152.00
2019-04-22T08:33:57.067Z,4824.00
2019-04-22T08:34:47.393Z,4460.00
2019-04-22T08:36:17.960Z,3992.00
2019-04-22T08:37:41.881Z,3752.00
2019-04-22T08:38:14.733Z,3632.00
2019-04-22T08:39:23.134Z,3652.00
2019-04-22T08:40:20.641Z,3840.00
2019-04-22T08:41:37.541Z,4300.00
2019-04-22T08:42:50.343Z,4740.00
2019-04-22T08:43:55.822Z,5352.00
2019-04-22T08:44:58.331Z,6260.00
2019-04-22T08:45:57.033Z,6960.00
2019-04-22T08:46:41.016Z,7868.00
2019-04-22T08:48:11.056Z,8736.00
2019-04-22T08:49:05.825Z,8848.00
2019-04-22T08:50:07.748Z,8788.00
2019-04-22T08:51:29.457Z,8652.00
2019-04-22T08:52:33.968Z,8484.00
2019-04-22T08:53:31.431Z,8544.00
2019-04-22T08:54:57.358Z,9056.00
2019-04-22T08:56:29.882Z,9352.00
2019-04-22T08:57:25.987Z,9332.00
2019-04-22T08:58:27.689Z,9120.00
2019-04-22T08:59:19.832Z,8684.00
2019-04-22T09:00:19.985Z,8084.00
2019-04-22T09:01:22.839Z,7476.00
2019-04-22T09:02:25.979Z,6876.00
2019-04-22T09:03:20.658Z,6428.00
2019-04-22T09:04:45.049Z,6004.00
2019-04-22T09:07:36.808Z,5616.00
2019-04-22T09:08:45.586Z,5548.00
2019-04-22T09:09:37.887Z,5492.00
2019-04-22T09:10:37.798Z,5596.00
2019-04-22T09:12:02.846Z,5656.00
2019-04-22T09:14:31.249Z,5404.00
2019-04-22T09:15:31.095Z,5480.00
2019-04-22T09:16:36.257Z,5560.00
2019-04-22T09:17:39.823Z,5912.00
2019-04-22T09:18:32.966Z,6428.00
2019-04-22T09:19:23.837Z,6592.00
2019-04-22T09:21:01.331Z,6264.00
2019-04-22T09:21:55.974Z,6320.00
2019-04-22T09:23:00.901Z,6520.00
2019-04-22T09:23:54.037Z,6636.00
2019-04-22T09:25:10.326Z,6848.00
2019-04-22T09:26:42.023Z,7160.00
2019-04-22T09:29:04.979Z,7680.00
2019-04-22T09:30:37.099Z,8408.00
2019-04-22T09:31:29.368Z,9184.00
2019-04-22T09:32:36.364Z,9044.00
2019-04-22T09:33:43.358Z,8948.00
2019-04-22T09:34:34.921Z,8704.00
2019-04-22T09:35:31.866Z,8628.00
2019-04-22T09:36:58.981Z,8464.00
2019-04-22T09:38:12.543Z,8376.00
2019-04-22T09:38:52.954Z,8328.00
2019-04-22T09:39:59.648Z,8176.00
2019-04-22T09:40:52.489Z,7820.00
2019-04-22T09:42:18.238Z,6976.00
2019-04-22T09:43:25.957Z,6408.00
2019-04-22T09:44:16.345Z,6104.00
2019-04-22T09:45:43.214Z,6636.00
2019-04-22T09:47:06.219Z,7328.00
2019-04-22T09:48:16.695Z,7600.00
2019-04-22T09:49:14.846Z,7768.00
2019-04-22T09:50:38.326Z,7424.00
2019-04-22T09:51:30.895Z,6908.00
2019-04-22T09:52:35.969Z,6060.00
2019-04-22T09:53:43.505Z,5524.00
2019-04-22T09:54:41.399Z,5224.00
2019-04-22T09:55:56.847Z,5268.00
2019-04-22T09:57:21.398Z,5648.00
2019-04-22T09:58:52.317Z,5828.00
2019-04-22T09:59:51.007Z,5960.00
2019-04-22T10:03:36.499Z,8968.00
2019-04-22T10:04:40.183Z,9128.00
2019-04-22T10:06:13.284Z,8700.00
2019-04-22T10:07:27.247Z,8016.00
2019-04-22T10:08:33.980Z,7676.00
2019-04-22T10:09:42.921Z,7368.00
2019-04-22T10:11:00.552Z,6840.00
2019-04-22T10:11:51.060Z,6516.00
2019-04-22T10:13:18.940Z,5160.00
2019-04-22T10:14:19.101Z,4612.00
2019-04-22T10:15:13.848Z,4296.00
2019-04-22T10:16:43.768Z,4332.00
2019-04-22T10:17:43.970Z,4700.00
2019-04-22T10:18:46.297Z,5064.00
2019-04-22T10:20:08.756Z,5488.00
2019-04-22T10:21:12.394Z,5784.00
2019-04-22T10:22:35.606Z,6032.00
2019-04-22T10:23:59.465Z,6208.00
2019-04-22T10:25:01.906Z,6300.00
2019-04-22T10:26:02.619Z,6540.00
2019-04-22T10:27:25.953Z,6544.00
2019-04-22T10:28:23.631Z,6500.00
2019-04-22T10:29:47.404Z,6900.00
2019-04-22T10:31:14.928Z,7520.00
2019-04-22T10:32:06.776Z,7720.00
2019-04-22T10:33:25.538Z,7328.00
2019-04-22T10:34:40.834Z,6572.00
2019-04-22T10:35:59.355Z,6036.00
2019-04-22T10:37:02.705Z,5776.00
2019-04-22T10:38:24.114Z,5736.00
2019-04-22T10:39:35.259Z,6088.00
2019-04-22T10:40:48.366Z,6820.00
2019-04-22T10:41:48.684Z,6856.00
2019-04-22T10:42:49.476Z,6576.00
2019-04-22T10:43:48.326Z,6060.00
2019-04-22T10:44:49.898Z,5620.00
2019-04-22T10:45:48.306Z,5304.00
2019-04-22T10:46:49.745Z,4804.00
2019-04-22T10:47:48.280Z,4488.00
2019-04-22T10:48:48.446Z,4312.00
2019-04-22T10:49:48.684Z,3976.00
2019-04-22T10:50:48.876Z,3740.00
2019-04-22T10:51:48.741Z,3700.00
2019-04-22T10:52:49.634Z,3964.00
2019-04-22T10:53:49.337Z,4536.00
2019-04-22T10:54:49.409Z,4948.00
2019-04-22T10:55:49.800Z,5180.00
2019-04-22T10:56:48.772Z,5264.00
2019-04-22T10:57:48.639Z,5312.00
2019-04-22T10:58:48.971Z,5168.00
2019-04-22T10:59:48.159Z,4860.00
2019-04-22T11:00:49.921Z,4504.00
2019-04-22T11:01:48.701Z,4352.00
2019-04-22T11:02:49.647Z,4276.00
2019-04-22T11:03:49.106Z,4176.00
2019-04-22T11:04:48.206Z,4236.00
2019-04-22T11:05:48.432Z,4340.00
2019-04-22T11:06:55.591Z,4744.00
2019-04-22T11:08:20.424Z,4892.00
2019-04-22T11:09:49.344Z,4644.00
2019-04-22T11:11:15.099Z,4436.00
2019-04-22T11:12:31.908Z,4212.00
2019-04-22T11:13:28.249Z,4240.00
2019-04-22T11:14:28.536Z,4392.00
2019-04-22T11:15:28.588Z,4712.00
2019-04-22T11:16:27.893Z,4780.00
2019-04-22T11:17:27.291Z,5056.00
2019-04-22T11:18:27.463Z,5112.00
2019-04-22T11:19:27.773Z,5248.00
2019-04-22T11:20:27.258Z,5488.00
2019-04-22T11:21:27.469Z,5416.00
2019-04-22T11:22:31.555Z,5224.00
2019-04-22T11:23:52.495Z,4896.00
2019-04-22T11:24:53.324Z,4712.00
2019-04-22T11:25:52.070Z,4500.00
2019-04-22T11:26:52.777Z,4248.00
2019-04-22T11:27:53.566Z,4204.00
2019-04-22T11:28:51.992Z,4164.00
2019-04-22T11:29:53.207Z,4264.00
2019-04-22T11:30:52.356Z,4128.00
2019-04-22T11:31:52.536Z,4068.00
2019-04-22T11:32:51.950Z,3876.00
2019-04-22T11:33:52.481Z,3908.00
2019-04-22T11:34:51.926Z,4228.00
2019-04-22T11:35:52.158Z,4544.00
2019-04-22T11:36:52.675Z,4864.00
2019-04-22T11:37:52.767Z,5012.00
2019-04-22T11:38:56.410Z,5112.00
2019-04-22T11:40:24.044Z,4928.00
2019-04-22T11:41:17.776Z,4948.00
2019-04-22T11:42:18.169Z,4796.00
2019-04-22T11:43:16.666Z,4372.00
2019-04-22T11:44:17.195Z,4036.00
2019-04-22T11:45:17.461Z,3780.00
2019-04-22T11:46:17.644Z,3716.00
2019-04-22T11:47:17.150Z,3740.00
2019-04-22T11:48:17.600Z,3844.00
2019-04-22T11:49:16.595Z,4004.00
2019-04-22T11:50:17.732Z,4260.00
2019-04-22T11:51:18.015Z,4560.00
2019-04-22T11:52:17.459Z,4600.00
2019-04-22T11:53:16.753Z,4500.00
2019-04-22T11:54:17.064Z,4236.00
2019-04-22T11:55:17.019Z,4012.00
2019-04-22T11:56:16.848Z,4104.00
2019-04-22T11:57:17.054Z,4300.00
2019-04-22T11:58:17.035Z,4384.00
2019-04-22T11:59:16.488Z,4280.00
2019-04-22T12:00:16.898Z,4192.00
2019-04-22T12:01:16.925Z,4088.00
2019-04-22T12:02:18.082Z,4000.00
2019-04-22T12:03:16.861Z,3892.00
2019-04-22T12:04:17.940Z,3876.00
2019-04-22T12:05:17.510Z,3764.00
2019-04-22T12:06:17.820Z,3716.00
2019-04-22T12:07:17.198Z,3644.00
2019-04-22T12:08:17.324Z,3428.00
2019-04-22T12:09:17.606Z,3344.00
2019-04-22T12:10:28.509Z,3296.00
2019-04-22T12:11:41.232Z,3404.00
2019-04-22T12:12:44.396Z,3432.00
2019-04-22T12:13:42.208Z,3540.00
2019-04-22T12:14:42.416Z,3624.00
2019-04-22T12:15:42.705Z,3644.00
2019-04-22T12:16:41.472Z,3608.00
2019-04-22T12:17:42.616Z,3552.00
2019-04-22T12:18:41.164Z,3500.00
2019-04-22T12:19:42.055Z,3460.00
2019-04-22T12:20:41.496Z,3420.00
2019-04-22T12:21:41.376Z,3388.00
2019-04-22T12:22:41.216Z,3136.00
2019-04-22T12:23:41.317Z,3156.00
2019-04-22T12:24:42.467Z,2948.00
2019-04-22T12:25:48.695Z,2900.00
2019-04-22T12:26:42.411Z,2864.00
2019-04-22T12:27:41.289Z,2912.00
2019-04-22T12:28:41.231Z,2972.00
2019-04-22T12:29:41.043Z,2816.00
2019-04-22T12:30:41.709Z,2944.00
2019-04-22T12:31:41.967Z,2872.00
2019-04-22T12:32:41.231Z,2964.00
2019-04-22T12:33:41.365Z,2924.00
2019-04-22T12:34:41.768Z,3004.00
2019-04-22T12:35:42.190Z,2972.00
2019-04-22T12:36:42.610Z,2956.00
2019-04-22T12:37:49.913Z,2896.00
2019-04-22T12:39:07.521Z,2704.00
2019-04-22T12:40:06.491Z,2704.00
2019-04-22T12:41:09.590Z,2700.00
2019-04-22T12:42:06.175Z,2644.00
2019-04-22T12:43:06.687Z,2532.00
2019-04-22T12:44:07.318Z,2496.00
2019-04-22T12:45:06.508Z,2452.00
2019-04-22T12:46:06.010Z,2292.00
2019-04-22T12:47:07.255Z,2236.00
2019-04-22T12:48:06.394Z,2240.00
2019-04-22T12:49:05.655Z,2148.00
2019-04-22T12:50:12.281Z,2036.00
2019-04-22T12:51:07.128Z,1968.00
2019-04-22T12:52:05.636Z,1928.00
2019-04-22T12:53:10.587Z,1940.00
2019-04-22T12:54:31.124Z,1940.00
2019-04-22T12:55:30.411Z,1936.00
2019-04-22T12:56:30.499Z,1920.00
2019-04-22T12:57:30.385Z,1884.00
2019-04-22T12:58:31.709Z,1860.00
2019-04-22T12:59:31.724Z,1836.00
2019-04-22T13:00:30.357Z,1840.00
2019-04-22T13:01:30.872Z,1836.00
2019-04-22T13:02:31.311Z,1872.00
2019-04-22T13:03:30.325Z,1936.00
2019-04-22T13:04:30.312Z,1964.00
2019-04-22T13:05:31.365Z,1976.00
2019-04-22T13:06:30.293Z,1968.00
2019-04-22T13:07:31.525Z,1964.00
2019-04-22T13:08:31.711Z,1944.00
2019-04-22T13:09:31.472Z,1924.00
2019-04-22T13:10:41.600Z,1900.00
2019-04-22T13:11:34.849Z,1884.00
2019-04-22T13:12:31.094Z,1864.00
2019-04-22T13:13:31.369Z,1844.00
2019-04-22T13:14:30.745Z,1812.00
2019-04-22T13:15:30.872Z,1772.00
2019-04-22T13:16:31.261Z,1736.00
2019-04-22T13:17:31.249Z,1680.00
2019-04-22T13:18:38.150Z,1616.00
2019-04-22T13:19:56.074Z,1528.00
2019-04-22T13:20:55.004Z,1456.00
2019-04-22T13:21:56.441Z,1396.00
2019-04-22T13:22:54.990Z,1336.00
2019-04-22T13:23:54.975Z,1288.00
2019-04-22T13:24:55.216Z,1252.00
2019-04-22T13:25:54.956Z,1220.00
2019-04-22T13:26:55.105Z,1212.00
2019-04-22T13:27:55.298Z,1196.00
2019-04-22T13:28:54.951Z,1164.00
2019-04-22T13:29:55.195Z,1152.00
2019-04-22T13:30:54.998Z,1148.00
2019-04-22T13:31:55.128Z,1124.00
2019-04-22T13:32:54.876Z,1088.00
2019-04-22T13:33:57.243Z,1044.00
2019-04-22T13:34:58.807Z,1004.00
2019-04-22T13:36:22.744Z,956.00
2019-04-22T13:37:20.891Z,912.00
2019-04-22T13:38:19.682Z,876.00
2019-04-22T13:39:20.870Z,852.00
2019-04-22T13:40:21.018Z,820.00
2019-04-22T13:41:31.221Z,780.00
2019-04-22T13:42:44.880Z,724.00
2019-04-22T13:43:44.991Z,692.00
2019-04-22T13:44:46.067Z,652.00
2019-04-22T13:45:45.682Z,612.00
2019-04-22T13:47:04.221Z,568.00
2019-04-22T13:48:01.546Z,528.00
2019-04-22T13:49:47.802Z,480.00
2019-04-22T13:50:43.656Z,456.00
2019-04-22T13:51:50.617Z,428.00
2019-04-22T13:52:46.402Z,396.00
2019-04-22T13:53:45.071Z,364.00
2019-04-22T13:56:55.146Z,288.00
2019-04-22T13:57:53.967Z,264.00
2019-04-22T13:59:08.722Z,236.00
2019-04-22T14:00:24.906Z,204.00
2019-04-22T14:01:24.844Z,184.00
2019-04-22T14:02:24.385Z,164.00
2019-04-22T14:03:24.638Z,144.00
2019-04-22T14:04:24.773Z,128.00
2019-04-22T14:05:24.548Z,116.00
2019-04-22T14:06:24.841Z,104.00
2019-04-22T14:07:23.460Z,92.00
2019-04-22T14:08:24.891Z,80.00
2019-04-22T14:09:24.409Z,68.00
2019-04-22T14:10:24.845Z,60.00
2019-04-22T14:11:32.715Z,56.00
2019-04-22T14:12:48.800Z,44.00
2019-04-22T14:13:48.205Z,40.00
2019-04-22T14:14:50.444Z,32.00
2019-04-22T14:15:48.694Z,28.00
2019-04-22T14:16:49.130Z,24.00
2019-04-22T14:17:49.202Z,20.00
2019-04-22T14:18:49.671Z,16.00
2019-04-22T14:19:48.546Z,12.00
2019-04-22T14:20:49.205Z,8.00
2019-04-22T14:21:49.508Z,8.00
2019-04-22T14:22:48.527Z,4.00
2019-04-22T14:24:17.697Z,4.00
2019-04-22T14:25:16.590Z,4.00
2019-04-22T14:26:17.441Z,4.00
2019-04-22T14:27:27.944Z,4.00
2019-04-22T14:28:41.656Z,0.00
2019-04-22T14:29:41.965Z,0.00
2019-04-22T14:30:42.325Z,0.00
2019-04-22T14:32:16.605Z,0.00
2019-04-22T14:33:34.171Z,0.00
2019-04-22T14:34:34.268Z,0.00
2019-04-22T14:35:38.019Z,0.00
2019-04-22T14:36:33.466Z,0.00
2019-04-22T14:37:34.189Z,0.00
2019-04-22T14:38:34.669Z,0.00
2019-04-22T14:39:33.881Z,0.00
2019-04-22T14:40:36.130Z,0.00
2019-04-22T14:41:46.392Z,0.00
2019-04-22T14:43:23.353Z,0.00
2019-04-22T14:45:07.121Z,0.00
2019-04-22T14:46:49.227Z,0.00
2019-04-22T14:47:51.258Z,0.00
2019-04-22T14:48:49.976Z,0.00
2019-04-22T14:49:50.919Z,0.00
2019-04-22T14:51:09.060Z,0.00
2019-04-22T14:52:38.093Z,0.00
2019-04-22T14:53:56.592Z,0.00
2019-04-22T14:54:52.007Z,0.00
2019-04-22T14:56:02.414Z,0.00
2019-04-22T14:57:03.304Z,0.00
2019-04-22T14:58:02.189Z,0.00
2019-04-22T14:59:02.939Z,0.00
2019-04-22T15:00:02.362Z,0.00
2019-04-22T15:01:03.305Z,0.00
2019-04-22T15:02:03.423Z,0.00
2019-04-22T15:03:03.688Z,0.00
2019-04-22T15:04:02.948Z,0.00
2019-04-22T15:05:02.161Z,0.00
2019-04-22T15:06:02.279Z,0.00
2019-04-22T15:07:03.112Z,0.00
2019-04-22T15:08:03.310Z,0.00
2019-04-22T15:09:02.067Z,0.00
2019-04-22T15:10:02.155Z,0.00
2019-04-22T15:11:02.220Z,0.00
2019-04-22T15:12:10.995Z,0.00
2019-04-22T15:13:05.350Z,0.00